createdAt,value
2019-05-01T00:01:40.767Z,98.80
2019-05-01T00:04:29.145Z,98.90
2019-05-01T00:07:02.587Z,99.00
2019-05-01T00:09:33.365Z,99.00
2019-05-01T00:12:03.973Z,99.10
2019-05-01T00:14:36.352Z,98.90
2019-05-01T00:17:07.026Z,98.90
2019-05-01T00:19:37.675Z,98.70
2019-05-01T00:22:08.247Z,98.60
2019-05-01T00:24:38.792Z,98.80
2019-05-01T00:27:09.373Z,98.80
2019-05-01T00:29:39.923Z,98.80
2019-05-01T00:32:10.496Z,98.80
2019-05-01T00:34:41.083Z,98.90
2019-05-01T00:37:11.602Z,98.90
2019-05-01T00:39:42.071Z,98.90
2019-05-01T00:42:12.692Z,99.00
2019-05-01T00:44:43.251Z,99.10
2019-05-01T00:47:13.795Z,99.20
2019-05-01T00:49:44.363Z,99.20
2019-05-01T00:52:14.862Z,99.30
2019-05-01T00:54:46.976Z,99.30
2019-05-01T00:57:34.432Z,99.30
2019-05-01T01:00:24.875Z,99.30
2019-05-01T01:02:56.233Z,99.40
2019-05-01T01:05:26.729Z,99.20
2019-05-01T01:07:57.292Z,99.10
2019-05-01T01:10:27.791Z,99.10
2019-05-01T01:12:58.483Z,99.00
2019-05-01T01:15:29.133Z,99.10
2019-05-01T01:17:59.699Z,99.20
2019-05-01T01:20:31.525Z,99.10
2019-05-01T01:23:02.385Z,99.30
2019-05-01T01:25:33.955Z,99.30
2019-05-01T01:28:04.839Z,99.30
2019-05-01T01:30:35.314Z,99.50
2019-05-01T01:33:05.889Z,99.50
2019-05-01T01:35:36.355Z,99.50
2019-05-01T01:38:06.839Z,99.50
2019-05-01T01:40:37.580Z,99.50
2019-05-01T01:43:26.013Z,99.40
2019-05-01T01:45:58.424Z,99.20
2019-05-01T01:48:29.111Z,99.20
2019-05-01T01:51:00.222Z,99.10
2019-05-01T01:53:31.084Z,99.10
2019-05-01T01:56:01.642Z,99.10
2019-05-01T01:58:32.450Z,99.20
2019-05-01T02:01:28.093Z,99.10
2019-05-01T02:04:03.948Z,99.10
2019-05-01T02:06:34.520Z,99.10
2019-05-01T02:09:07.060Z,99.10
2019-05-01T02:11:39.156Z,99.00
2019-05-01T02:14:09.619Z,99.00
2019-05-01T02:16:40.209Z,99.10
2019-05-01T02:19:10.851Z,99.00
2019-05-01T02:21:41.451Z,99.10
2019-05-01T02:24:12.067Z,99.10
2019-05-01T02:26:46.129Z,99.20
2019-05-01T02:29:31.123Z,99.30
2019-05-01T02:32:01.983Z,99.40
2019-05-01T02:34:33.359Z,99.40
2019-05-01T02:37:05.015Z,99.40
2019-05-01T02:39:37.512Z,99.40
2019-05-01T02:42:09.795Z,99.40
2019-05-01T02:44:47.286Z,99.40
2019-05-01T02:47:23.720Z,99.70
2019-05-01T02:50:06.123Z,99.60
2019-05-01T02:52:39.575Z,99.70
2019-05-01T02:55:36.177Z,99.70
2019-05-01T02:58:09.831Z,99.70
2019-05-01T03:00:40.687Z,99.70
2019-05-01T03:03:12.232Z,99.80
2019-05-01T03:05:42.721Z,99.80
2019-05-01T03:08:13.311Z,99.90
2019-05-01T03:10:43.812Z,99.90
2019-05-01T03:13:14.307Z,99.90
2019-05-01T03:15:44.863Z,99.90
2019-05-01T03:18:30.411Z,99.90
2019-05-01T03:21:26.267Z,99.90
2019-05-01T03:24:01.164Z,99.90
2019-05-01T03:26:32.064Z,99.90
2019-05-01T03:29:02.562Z,99.90
2019-05-01T03:31:33.162Z,99.90
2019-05-01T03:34:03.745Z,99.90
2019-05-01T03:36:34.265Z,99.90
2019-05-01T03:39:06.143Z,99.90
2019-05-01T03:41:36.921Z,99.90
2019-05-01T03:44:08.447Z,99.90
2019-05-01T03:46:39.062Z,99.90
2019-05-01T03:49:09.936Z,99.90
2019-05-01T03:51:41.629Z,99.90
2019-05-01T03:54:13.162Z,99.90
2019-05-01T03:56:44.287Z,99.90
2019-05-01T03:59:15.202Z,99.90
2019-05-01T04:01:55.227Z,99.90
2019-05-01T04:04:28.154Z,99.90
2019-05-01T04:06:59.017Z,99.90
2019-05-01T04:09:29.576Z,99.80
2019-05-01T04:12:00.096Z,99.80
2019-05-01T04:14:31.637Z,99.60
2019-05-01T04:17:10.125Z,99.50
2019-05-01T04:19:40.928Z,99.50
2019-05-01T04:22:12.973Z,99.50
2019-05-01T04:24:44.221Z,99.50
2019-05-01T04:27:21.203Z,99.80
2019-05-01T04:30:08.962Z,99.80
2019-05-01T04:32:52.307Z,99.70
2019-05-01T04:35:19.514Z,99.70
2019-05-01T04:37:50.134Z,99.70
2019-05-01T04:40:21.546Z,99.60
2019-05-01T04:42:52.122Z,99.50
2019-05-01T04:45:23.425Z,99.50
2019-05-01T04:47:54.437Z,99.80
2019-05-01T04:50:25.225Z,99.90
2019-05-01T04:52:56.273Z,99.90
2019-05-01T04:55:27.455Z,99.90
2019-05-01T04:57:58.177Z,99.90
2019-05-01T05:00:29.332Z,99.90
2019-05-01T05:03:05.219Z,99.90
2019-05-01T05:05:36.328Z,99.90
2019-05-01T05:08:07.065Z,99.90
2019-05-01T05:10:39.093Z,99.90
2019-05-01T05:13:23.359Z,99.90
2019-05-01T05:16:08.855Z,99.90
2019-05-01T05:18:39.312Z,99.90
2019-05-01T05:21:10.256Z,99.90
2019-05-01T05:23:40.903Z,99.90
2019-05-01T05:26:11.399Z,99.70
2019-05-01T05:28:43.582Z,99.60
2019-05-01T05:31:14.753Z,99.60
2019-05-01T05:33:48.697Z,99.50
2019-05-01T05:36:20.114Z,99.50
2019-05-01T05:39:19.198Z,99.20
2019-05-01T05:41:50.919Z,98.80
2019-05-01T05:44:21.575Z,98.20
2019-05-01T05:46:52.126Z,98.00
2019-05-01T05:49:23.454Z,97.80
2019-05-01T05:52:03.040Z,97.70
2019-05-01T05:54:59.464Z,97.60
2019-05-01T05:57:53.346Z,97.80
2019-05-01T06:00:47.667Z,97.70
2019-05-01T06:03:38.877Z,97.50
2019-05-01T06:06:22.227Z,97.50
2019-05-01T06:08:54.972Z,97.30
2019-05-01T06:11:50.087Z,97.30
2019-05-01T06:14:50.909Z,97.50
2019-05-01T06:17:33.024Z,97.40
2019-05-01T06:20:13.972Z,97.50
2019-05-01T06:23:02.583Z,97.40
2019-05-01T06:25:36.477Z,97.00
2019-05-01T06:28:07.308Z,96.60
2019-05-01T06:30:41.991Z,96.40
2019-05-01T06:33:11.282Z,95.70
2019-05-01T06:35:42.075Z,94.80
2019-05-01T06:38:16.677Z,94.70
2019-05-01T06:40:53.221Z,94.50
2019-05-01T06:43:35.578Z,93.80
2019-05-01T06:46:40.113Z,92.20
2019-05-01T06:49:28.934Z,90.30
2019-05-01T06:51:57.957Z,89.60
2019-05-01T06:54:30.349Z,90.40
2019-05-01T06:57:02.555Z,91.00
2019-05-01T06:59:35.062Z,91.00
2019-05-01T07:02:06.302Z,91.00
2019-05-01T07:04:38.152Z,90.20
2019-05-01T07:07:18.569Z,89.30
2019-05-01T07:09:44.127Z,88.60
2019-05-01T07:12:18.869Z,87.20
2019-05-01T07:14:50.805Z,85.20
2019-05-01T07:17:23.263Z,82.60
2019-05-01T07:20:19.301Z,81.80
2019-05-01T07:22:49.766Z,79.90
2019-05-01T07:25:20.494Z,79.10
2019-05-01T07:27:54.019Z,78.30
2019-05-01T07:30:42.577Z,77.40
2019-05-01T07:33:16.609Z,74.70
2019-05-01T07:35:45.940Z,76.10
2019-05-01T07:38:16.874Z,75.30
2019-05-01T07:40:47.334Z,75.00
2019-05-01T07:43:39.757Z,72.90
2019-05-01T07:46:28.126Z,72.40
2019-05-01T07:48:58.965Z,68.10
2019-05-01T07:51:29.872Z,69.10
2019-05-01T07:54:04.052Z,69.20
2019-05-01T07:56:33.994Z,67.90
2019-05-01T07:59:04.711Z,67.90
2019-05-01T08:01:54.651Z,69.40
2019-05-01T08:04:35.976Z,67.90
2019-05-01T08:06:58.696Z,66.20
2019-05-01T08:09:29.323Z,64.90
2019-05-01T08:11:59.879Z,63.30
2019-05-01T08:14:30.445Z,66.60
2019-05-01T08:17:00.939Z,66.60
2019-05-01T08:19:39.531Z,65.80
2019-05-01T08:22:16.359Z,65.60
2019-05-01T08:24:46.853Z,64.80
2019-05-01T08:27:36.505Z,63.00
2019-05-01T08:30:26.421Z,62.50
2019-05-01T08:33:18.807Z,65.70
2019-05-01T08:35:49.422Z,63.30
2019-05-01T08:38:20.194Z,61.10
2019-05-01T08:40:55.083Z,62.10
2019-05-01T08:43:22.988Z,61.80
2019-05-01T08:46:16.472Z,60.30
2019-05-01T08:48:55.253Z,60.60
2019-05-01T08:51:30.130Z,59.70
2019-05-01T08:53:59.523Z,59.10
2019-05-01T08:56:30.134Z,62.50
2019-05-01T08:59:00.558Z,61.40
2019-05-01T09:01:31.146Z,62.40
2019-05-01T09:04:12.329Z,62.40
2019-05-01T09:06:35.068Z,64.50
2019-05-01T09:09:09.903Z,63.80
2019-05-01T09:11:40.671Z,66.90
2019-05-01T09:14:11.200Z,66.30
2019-05-01T09:16:41.816Z,69.40
2019-05-01T09:19:12.468Z,57.60
2019-05-01T09:21:44.293Z,55.80
2019-05-01T09:24:14.911Z,56.70
2019-05-01T09:26:58.770Z,52.80
2019-05-01T09:29:36.601Z,51.20
2019-05-01T09:32:10.278Z,51.30
2019-05-01T09:34:39.676Z,48.10
2019-05-01T09:37:10.266Z,48.50
2019-05-01T09:39:40.973Z,49.60
2019-05-01T09:42:12.309Z,51.60
2019-05-01T09:44:42.898Z,48.30
2019-05-01T09:47:14.385Z,47.80
2019-05-01T09:49:48.695Z,47.00
2019-05-01T09:52:42.005Z,47.00
2019-05-01T09:55:17.812Z,46.50
2019-05-01T09:57:49.040Z,45.60
2019-05-01T10:00:27.312Z,45.50
2019-05-01T10:02:57.911Z,46.10
2019-05-01T10:05:29.328Z,45.00
2019-05-01T10:08:03.788Z,43.00
2019-05-01T10:10:32.335Z,40.60
2019-05-01T10:13:02.764Z,40.20
2019-05-01T10:15:33.276Z,40.30
2019-05-01T10:18:03.895Z,43.00
2019-05-01T10:20:34.390Z,38.10
2019-05-01T10:23:07.758Z,39.50
2019-05-01T10:25:42.792Z,38.50
2019-05-01T10:28:18.263Z,37.20
2019-05-01T10:31:11.997Z,37.40
2019-05-01T10:33:42.701Z,38.10
2019-05-01T10:36:32.101Z,39.30
2019-05-01T10:39:04.616Z,40.30
2019-05-01T10:41:35.863Z,41.70
2019-05-01T10:44:06.503Z,39.90
2019-05-01T10:46:37.049Z,37.70
2019-05-01T10:49:07.622Z,37.50
2019-05-01T10:51:38.257Z,38.70
2019-05-01T10:54:08.961Z,38.30
2019-05-01T10:56:39.494Z,39.10
2019-05-01T10:59:10.075Z,37.90
2019-05-01T11:01:48.424Z,38.00
2019-05-01T11:04:20.002Z,36.70
2019-05-01T11:06:50.786Z,37.20
2019-05-01T11:09:21.289Z,37.30
2019-05-01T11:11:51.861Z,35.30
2019-05-01T11:14:22.543Z,34.90
2019-05-01T11:16:53.100Z,37.40
2019-05-01T11:19:23.716Z,37.60
2019-05-01T11:21:54.333Z,36.00
2019-05-01T11:24:24.913Z,38.20
2019-05-01T11:26:55.452Z,38.30
2019-05-01T11:29:25.924Z,36.00
2019-05-01T11:32:02.352Z,33.60
2019-05-01T11:35:06.972Z,34.80
2019-05-01T11:37:51.883Z,34.30
2019-05-01T11:40:35.482Z,35.50
2019-05-01T11:43:05.965Z,35.10
2019-05-01T11:45:37.106Z,37.20
2019-05-01T11:48:07.696Z,36.80
2019-05-01T11:50:38.486Z,37.90
2019-05-01T11:53:08.971Z,39.50
2019-05-01T11:55:39.491Z,40.30
2019-05-01T11:58:10.068Z,41.10
2019-05-01T12:00:40.622Z,40.30
2019-05-01T12:03:11.196Z,40.30
2019-05-01T12:05:41.659Z,40.00
2019-05-01T12:08:12.238Z,40.30
2019-05-01T12:10:42.731Z,38.20
2019-05-01T12:13:14.335Z,39.00
2019-05-01T12:15:46.480Z,41.10
2019-05-01T12:18:16.939Z,39.80
2019-05-01T12:20:47.578Z,39.20
2019-05-01T12:23:18.478Z,38.50
2019-05-01T12:25:49.211Z,38.40
2019-05-01T12:28:19.923Z,38.30
2019-05-01T12:30:50.461Z,39.10
2019-05-01T12:33:20.942Z,40.50
2019-05-01T12:35:52.984Z,41.30
2019-05-01T12:38:23.659Z,40.30
2019-05-01T12:41:11.889Z,41.70
2019-05-01T12:43:42.396Z,40.90
2019-05-01T12:46:31.916Z,40.30
2019-05-01T12:49:02.512Z,38.40
2019-05-01T12:51:33.124Z,39.60
2019-05-01T12:54:19.099Z,40.50
2019-05-01T12:56:55.746Z,40.90
2019-05-01T12:59:26.508Z,38.80
2019-05-01T13:01:58.356Z,39.30
2019-05-01T13:04:29.949Z,40.50
2019-05-01T13:07:01.256Z,39.30
2019-05-01T13:09:31.784Z,39.70
2019-05-01T13:12:02.218Z,39.00
2019-05-01T13:14:32.814Z,39.30
2019-05-01T13:17:03.306Z,39.10
2019-05-01T13:19:34.761Z,38.70
2019-05-01T13:22:05.466Z,38.20
2019-05-01T13:24:38.588Z,39.80
2019-05-01T13:27:17.408Z,40.50
2019-05-01T13:30:12.988Z,40.10
2019-05-01T13:32:45.880Z,40.20
2019-05-01T13:35:16.354Z,39.30
2019-05-01T13:37:46.946Z,39.80
2019-05-01T13:40:18.404Z,40.10
2019-05-01T13:42:49.020Z,39.40
2019-05-01T13:45:19.522Z,40.50
2019-05-01T13:47:49.990Z,40.60
2019-05-01T13:50:20.666Z,41.80
2019-05-01T13:52:51.366Z,40.90
2019-05-01T13:55:22.146Z,41.60
2019-05-01T13:57:52.738Z,42.00
2019-05-01T14:00:25.089Z,40.90
2019-05-01T14:02:55.762Z,41.80
2019-05-01T14:05:27.311Z,42.20
2019-05-01T14:07:58.040Z,41.60
2019-05-01T14:10:28.785Z,40.70
2019-05-01T14:12:59.399Z,40.60
2019-05-01T14:15:29.983Z,40.40
2019-05-01T14:18:00.623Z,40.10
2019-05-01T14:20:48.226Z,40.40
2019-05-01T14:23:40.504Z,41.90
2019-05-01T14:26:11.336Z,40.80
2019-05-01T14:28:42.120Z,42.20
2019-05-01T14:31:12.694Z,40.50
2019-05-01T14:33:43.169Z,39.80
2019-05-01T14:36:13.728Z,39.50
2019-05-01T14:38:44.361Z,40.20
2019-05-01T14:41:14.903Z,40.80
2019-05-01T14:43:45.712Z,39.50
2019-05-01T14:46:16.442Z,40.10
2019-05-01T14:48:46.994Z,40.20
2019-05-01T14:51:17.487Z,40.40
2019-05-01T14:53:48.396Z,40.10
2019-05-01T14:56:18.938Z,40.50
2019-05-01T14:58:49.818Z,41.30
2019-05-01T15:01:20.296Z,42.50
2019-05-01T15:03:51.066Z,42.70
2019-05-01T15:06:22.003Z,42.20
2019-05-01T15:08:52.644Z,41.90
2019-05-01T15:11:23.152Z,42.10
2019-05-01T15:14:10.145Z,41.60
2019-05-01T15:16:46.236Z,41.60
2019-05-01T15:19:20.372Z,41.30
2019-05-01T15:21:50.974Z,42.10
2019-05-01T15:24:21.763Z,42.10
2019-05-01T15:26:53.352Z,42.10
2019-05-01T15:29:23.906Z,42.60
2019-05-01T15:31:54.804Z,43.20
2019-05-01T15:34:25.688Z,43.60
2019-05-01T15:36:56.418Z,43.90
2019-05-01T15:39:32.484Z,43.80
2019-05-01T15:42:13.758Z,44.00
2019-05-01T15:44:44.402Z,44.50
2019-05-01T15:47:15.165Z,45.10
2019-05-01T15:49:46.718Z,45.40
2019-05-01T15:52:17.277Z,44.00
2019-05-01T15:54:47.762Z,44.30
2019-05-01T15:57:18.247Z,44.70
2019-05-01T15:59:48.969Z,45.30
2019-05-01T16:02:19.386Z,45.70
2019-05-01T16:04:49.861Z,47.20
2019-05-01T16:07:20.285Z,47.10
2019-05-01T16:09:50.771Z,47.30
2019-05-01T16:12:35.356Z,47.80
2019-05-01T16:15:10.844Z,47.10
2019-05-01T16:17:41.391Z,47.70
2019-05-01T16:20:12.135Z,47.40
2019-05-01T16:22:42.621Z,47.30
2019-05-01T16:25:13.235Z,47.50
2019-05-01T16:27:43.757Z,47.30
2019-05-01T16:30:16.286Z,46.80
2019-05-01T16:32:46.849Z,47.90
2019-05-01T16:35:17.365Z,48.10
2019-05-01T16:37:48.036Z,47.90
2019-05-01T16:40:36.177Z,48.70
2019-05-01T16:43:09.372Z,48.60
2019-05-01T16:45:39.923Z,48.90
2019-05-01T16:48:10.531Z,49.60
2019-05-01T16:50:41.164Z,49.20
2019-05-01T16:53:11.856Z,49.40
2019-05-01T16:55:44.282Z,50.10
2019-05-01T16:58:15.296Z,50.50
2019-05-01T17:01:08.415Z,51.30
2019-05-01T17:03:56.703Z,51.50
2019-05-01T17:06:37.393Z,51.00
2019-05-01T17:09:38.128Z,50.80
2019-05-01T17:12:10.894Z,50.80
2019-05-01T17:14:40.813Z,50.90
2019-05-01T17:17:15.641Z,50.80
2019-05-01T17:19:46.191Z,50.70
2019-05-01T17:22:16.937Z,51.30
2019-05-01T17:24:47.611Z,51.90
2019-05-01T17:27:19.172Z,52.20
2019-05-01T17:29:49.598Z,52.70
2019-05-01T17:32:20.196Z,53.50
2019-05-01T17:34:50.670Z,53.30
2019-05-01T17:37:21.184Z,54.00
2019-05-01T17:39:51.744Z,54.00
2019-05-01T17:42:22.295Z,54.00
2019-05-01T17:44:55.974Z,54.90
2019-05-01T17:47:26.942Z,55.80
2019-05-01T17:49:57.440Z,56.30
2019-05-01T17:52:27.908Z,56.90
2019-05-01T17:55:01.263Z,57.50
2019-05-01T17:57:33.523Z,57.50
2019-05-01T18:00:04.432Z,58.10
2019-05-01T18:02:44.411Z,58.90
2019-05-01T18:05:40.313Z,59.40
2019-05-01T18:08:10.792Z,60.30
2019-05-01T18:10:41.382Z,60.30
2019-05-01T18:13:11.931Z,61.50
2019-05-01T18:15:42.590Z,61.90
2019-05-01T18:18:15.096Z,61.80
2019-05-01T18:20:45.150Z,62.70
2019-05-01T18:23:29.925Z,63.20
2019-05-01T18:26:08.727Z,63.80
2019-05-01T18:28:47.078Z,63.70
2019-05-01T18:31:22.122Z,63.70
2019-05-01T18:33:57.111Z,63.80
2019-05-01T18:36:31.728Z,63.70
2019-05-01T18:39:16.544Z,63.90
2019-05-01T18:41:49.393Z,64.00
2019-05-01T18:44:20.242Z,64.60
2019-05-01T18:46:50.743Z,64.90
2019-05-01T18:49:21.526Z,64.90
2019-05-01T18:51:52.372Z,65.80
2019-05-01T18:54:23.169Z,66.00
2019-05-01T18:56:54.755Z,66.50
2019-05-01T18:59:25.497Z,66.70
2019-05-01T19:01:56.207Z,66.60
2019-05-01T19:04:26.808Z,67.60
2019-05-01T19:06:57.386Z,68.10
2019-05-01T19:09:30.254Z,68.10
2019-05-01T19:12:00.428Z,68.60
2019-05-01T19:14:31.251Z,69.10
2019-05-01T19:17:01.872Z,70.50
2019-05-01T19:19:32.547Z,71.30
2019-05-01T19:22:03.194Z,71.50
2019-05-01T19:24:37.991Z,71.30
2019-05-01T19:27:06.451Z,71.20
2019-05-01T19:29:37.428Z,71.20
2019-05-01T19:32:08.762Z,71.60
2019-05-01T19:34:39.475Z,71.70
2019-05-01T19:37:10.318Z,71.80
2019-05-01T19:39:43.932Z,71.90
2019-05-01T19:42:13.497Z,71.80
2019-05-01T19:44:44.399Z,72.80
2019-05-01T19:47:15.016Z,72.60
2019-05-01T19:49:46.195Z,72.70
2019-05-01T19:52:16.814Z,73.20
2019-05-01T19:54:47.435Z,73.60
2019-05-01T19:57:18.046Z,73.70
2019-05-01T19:59:48.490Z,73.90
2019-05-01T20:02:22.092Z,73.80
2019-05-01T20:04:52.407Z,73.50
2019-05-01T20:07:22.988Z,73.70
2019-05-01T20:09:57.051Z,74.30
2019-05-01T20:12:25.799Z,76.00
2019-05-01T20:14:56.501Z,77.80
2019-05-01T20:17:27.080Z,77.80
2019-05-01T20:19:57.860Z,78.20
2019-05-01T20:22:28.427Z,79.10
2019-05-01T20:24:59.221Z,79.90
2019-05-01T20:27:29.765Z,81.20
2019-05-01T20:30:00.400Z,82.50
2019-05-01T20:32:30.959Z,84.20
2019-05-01T20:35:01.449Z,87.00
2019-05-01T20:37:32.245Z,89.80
2019-05-01T20:40:10.792Z,90.90
2019-05-01T20:42:36.562Z,91.40
2019-05-01T20:45:13.038Z,92.00
2019-05-01T20:47:45.462Z,92.10
2019-05-01T20:50:14.001Z,92.60
2019-05-01T20:52:44.769Z,92.60
2019-05-01T20:55:15.497Z,92.90
2019-05-01T20:57:46.993Z,93.00
2019-05-01T21:00:18.684Z,93.10
2019-05-01T21:02:49.330Z,93.30
2019-05-01T21:05:27.793Z,93.40
2019-05-01T21:08:08.627Z,93.40
2019-05-01T21:10:52.019Z,93.70
2019-05-01T21:13:23.468Z,93.70
2019-05-01T21:15:56.285Z,94.10
2019-05-01T21:18:27.764Z,94.30
2019-05-01T21:20:58.369Z,94.40
2019-05-01T21:23:28.847Z,94.30
2019-05-01T21:25:59.769Z,94.40
2019-05-01T21:28:30.355Z,94.40
2019-05-01T21:31:01.006Z,94.50
2019-05-01T21:33:33.996Z,94.60
2019-05-01T21:36:08.351Z,94.80
2019-05-01T21:38:37.393Z,95.00
2019-05-01T21:41:07.897Z,95.10
2019-05-01T21:43:38.337Z,95.30
2019-05-01T21:46:08.945Z,95.30
2019-05-01T21:48:39.542Z,95.40
2019-05-01T21:51:10.227Z,95.30
2019-05-01T21:53:42.769Z,95.40
2019-05-01T21:56:12.840Z,95.60
2019-05-01T21:58:45.183Z,95.50
2019-05-01T22:01:15.493Z,95.70
2019-05-01T22:03:46.107Z,95.40
2019-05-01T22:06:16.791Z,95.50
2019-05-01T22:08:47.186Z,95.50
2019-05-01T22:11:17.837Z,95.30
2019-05-01T22:13:48.610Z,95.40
2019-05-01T22:16:23.723Z,95.40
2019-05-01T22:19:14.842Z,95.70
2019-05-01T22:22:02.641Z,95.70
2019-05-01T22:24:53.239Z,95.90
2019-05-01T22:27:29.837Z,95.80
2019-05-01T22:30:12.472Z,95.60
2019-05-01T22:32:48.412Z,95.60
2019-05-01T22:35:24.347Z,95.60
2019-05-01T22:37:54.952Z,95.60
2019-05-01T22:40:43.008Z,95.60
2019-05-01T22:43:13.670Z,95.60
2019-05-01T22:45:44.278Z,95.60
2019-05-01T22:48:14.904Z,95.60
2019-05-01T22:50:46.251Z,95.70
2019-05-01T22:53:17.227Z,95.60
2019-05-01T22:55:47.888Z,95.60
2019-05-01T22:58:18.442Z,95.70
2019-05-01T23:00:51.475Z,95.90
2019-05-01T23:03:42.319Z,96.00
2019-05-01T23:06:13.227Z,96.20
2019-05-01T23:08:43.729Z,96.40
2019-05-01T23:11:20.038Z,96.30
2019-05-01T23:13:46.439Z,96.40
2019-05-01T23:16:18.635Z,96.40
2019-05-01T23:18:51.858Z,96.20
2019-05-01T23:21:21.650Z,96.30
2019-05-01T23:23:52.207Z,96.20
2019-05-01T23:26:23.517Z,96.40
2019-05-01T23:28:54.083Z,96.50
2019-05-01T23:31:24.847Z,96.60
2019-05-01T23:33:55.499Z,96.40
2019-05-01T23:36:26.209Z,96.40
2019-05-01T23:38:56.819Z,96.30
2019-05-01T23:41:44.678Z,96.40
2019-05-01T23:44:03.453Z,96.30
2019-05-01T23:46:31.658Z,96.30
2019-05-01T23:49:02.182Z,96.30
2019-05-01T23:51:32.680Z,96.30
2019-05-01T23:54:03.120Z,96.30
2019-05-01T23:56:35.043Z,96.40
2019-05-01T23:59:05.814Z,96.50
